sensor_id;sensor_type;location;lat;lon;timestamp;P1;durP1;ratioP1;P2;durP2;ratioP2
5833;SDS011;2943;48.012;10.968;2022-09-09T00:01:10;2.70;;;2.27;;
5833;SDS011;2943;48.012;10.968;2022-09-09T00:03:55;2.30;;;2.10;;
5833;SDS011;2943;48.012;10.968;2022-09-09T00:06:27;2.30;;;2.10;;
5833;SDS011;2943;48.012;10.968;2022-09-09T00:09:00;1.83;;;1.63;;
5833;SDS011;2943;48.012;10.968;2022-09-09T00:11:36;1.90;;;1.70;;
5833;SDS011;2943;48.012;10.968;2022-09-09T00:14:11;2.53;;;1.80;;
5833;SDS011;2943;48.012;10.968;2022-09-09T00:16:45;3.90;;;2.10;;
5833;SDS011;2943;48.012;10.968;2022-09-09T00:19:22;2.53;;;1.77;;
5833;SDS011;2943;48.012;10.968;2022-09-09T00:21:53;7.40;;;1.87;;
5833;SDS011;2943;48.012;10.968;2022-09-09T00:24:32;3.10;;;1.83;;
5833;SDS011;2943;48.012;10.968;2022-09-09T00:27:06;2.17;;;1.97;;
5833;SDS011;2943;48.012;10.968;2022-09-09T00:29:38;2.23;;;1.90;;
5833;SDS011;2943;48.012;10.968;2022-09-09T00:32:12;2.17;;;1.97;;
5833;SDS011;2943;48.012;10.968;2022-09-09T00:34:47;3.20;;;1.80;;
5833;SDS011;2943;48.012;10.968;2022-09-09T00:37:15;3.20;;;2.00;;
5833;SDS011;2943;48.012;10.968;2022-09-09T00:39:44;5.10;;;2.00;;
5833;SDS011;2943;48.012;10.968;2022-09-09T00:42:13;4.57;;;1.80;;
5833;SDS011;2943;48.012;10.968;2022-09-09T00:44:50;2.90;;;2.40;;
5833;SDS011;2943;48.012;10.968;2022-09-09T00:50:15;2.90;;;1.93;;
5833;SDS011;2943;48.012;10.968;2022-09-09T00:52:53;2.70;;;1.97;;
5833;SDS011;2943;48.012;10.968;2022-09-09T00:55:30;2.93;;;1.90;;
5833;SDS011;2943;48.012;10.968;2022-09-09T00:58:06;4.13;;;1.70;;
5833;SDS011;2943;48.012;10.968;2022-09-09T01:00:35;2.30;;;1.93;;
5833;SDS011;2943;48.012;10.968;2022-09-09T01:03:14;2.37;;;2.17;;
5833;SDS011;2943;48.012;10.968;2022-09-09T01:05:51;3.53;;;2.07;;
5833;SDS011;2943;48.012;10.968;2022-09-09T01:08:40;2.83;;;2.03;;
5833;SDS011;2943;48.012;10.968;2022-09-09T01:11:20;2.03;;;1.80;;
5833;SDS011;2943;48.012;10.968;2022-09-09T01:13:49;4.53;;;1.97;;
5833;SDS011;2943;48.012;10.968;2022-09-09T01:16:24;1.60;;;1.50;;
5833;SDS011;2943;48.012;10.968;2022-09-09T01:18:52;3.23;;;2.07;;
5833;SDS011;2943;48.012;10.968;2022-09-09T01:21:23;3.00;;;2.20;;
5833;SDS011;2943;48.012;10.968;2022-09-09T01:26:55;3.23;;;1.90;;
5833;SDS011;2943;48.012;10.968;2022-09-09T01:29:24;6.47;;;2.13;;
5833;SDS011;2943;48.012;10.968;2022-09-09T01:31:52;1.90;;;1.80;;
5833;SDS011;2943;48.012;10.968;2022-09-09T01:34:22;3.13;;;2.47;;
5833;SDS011;2943;48.012;10.968;2022-09-09T01:36:51;3.10;;;1.83;;
5833;SDS011;2943;48.012;10.968;2022-09-09T01:39:23;4.30;;;2.07;;
5833;SDS011;2943;48.012;10.968;2022-09-09T01:41:51;2.50;;;1.87;;
5833;SDS011;2943;48.012;10.968;2022-09-09T01:44:20;2.27;;;2.07;;
5833;SDS011;2943;48.012;10.968;2022-09-09T01:46:47;2.80;;;1.90;;
5833;SDS011;2943;48.012;10.968;2022-09-09T01:49:14;3.47;;;2.00;;
5833;SDS011;2943;48.012;10.968;2022-09-09T01:51:43;2.73;;;2.10;;
5833;SDS011;2943;48.012;10.968;2022-09-09T01:54:11;2.13;;;1.90;;
5833;SDS011;2943;48.012;10.968;2022-09-09T01:56:40;2.90;;;2.00;;
5833;SDS011;2943;48.012;10.968;2022-09-09T01:59:24;2.10;;;1.97;;
5833;SDS011;2943;48.012;10.968;2022-09-09T02:02:08;2.00;;;1.90;;
5833;SDS011;2943;48.012;10.968;2022-09-09T02:04:38;2.30;;;2.20;;
5833;SDS011;2943;48.012;10.968;2022-09-09T02:07:10;3.50;;;2.43;;
5833;SDS011;2943;48.012;10.968;2022-09-09T02:09:47;3.30;;;2.37;;
5833;SDS011;2943;48.012;10.968;2022-09-09T02:12:19;4.73;;;2.13;;
5833;SDS011;2943;48.012;10.968;2022-09-09T02:14:55;2.37;;;1.80;;
5833;SDS011;2943;48.012;10.968;2022-09-09T02:17:26;2.33;;;2.13;;
5833;SDS011;2943;48.012;10.968;2022-09-09T02:19:57;3.00;;;1.87;;
5833;SDS011;2943;48.012;10.968;2022-09-09T02:22:29;2.10;;;2.00;;
5833;SDS011;2943;48.012;10.968;2022-09-09T02:25:00;2.10;;;1.90;;
5833;SDS011;2943;48.012;10.968;2022-09-09T02:27:30;4.13;;;2.50;;
5833;SDS011;2943;48.012;10.968;2022-09-09T02:29:59;4.07;;;1.77;;
5833;SDS011;2943;48.012;10.968;2022-09-09T02:32:28;3.53;;;2.40;;
5833;SDS011;2943;48.012;10.968;2022-09-09T02:35:00;3.13;;;2.00;;
5833;SDS011;2943;48.012;10.968;2022-09-09T02:37:33;2.57;;;2.37;;
5833;SDS011;2943;48.012;10.968;2022-09-09T02:40:03;3.03;;;2.10;;
5833;SDS011;2943;48.012;10.968;2022-09-09T02:42:31;2.90;;;2.60;;
5833;SDS011;2943;48.012;10.968;2022-09-09T02:45:00;2.27;;;2.07;;
5833;SDS011;2943;48.012;10.968;2022-09-09T02:47:29;3.33;;;1.97;;
5833;SDS011;2943;48.012;10.968;2022-09-09T02:50:03;4.40;;;2.43;;
5833;SDS011;2943;48.012;10.968;2022-09-09T02:52:43;2.30;;;2.03;;
5833;SDS011;2943;48.012;10.968;2022-09-09T02:55:16;4.40;;;2.27;;
5833;SDS011;2943;48.012;10.968;2022-09-09T02:57:49;2.30;;;2.10;;
5833;SDS011;2943;48.012;10.968;2022-09-09T03:00:23;3.90;;;2.43;;
5833;SDS011;2943;48.012;10.968;2022-09-09T03:02:51;2.50;;;2.10;;
5833;SDS011;2943;48.012;10.968;2022-09-09T03:05:18;2.40;;;2.20;;
5833;SDS011;2943;48.012;10.968;2022-09-09T03:07:45;2.53;;;2.30;;
5833;SDS011;2943;48.012;10.968;2022-09-09T03:10:12;2.93;;;2.20;;
5833;SDS011;2943;48.012;10.968;2022-09-09T03:12:39;6.57;;;2.27;;
5833;SDS011;2943;48.012;10.968;2022-09-09T03:15:06;2.43;;;2.20;;
5833;SDS011;2943;48.012;10.968;2022-09-09T03:17:36;3.13;;;2.83;;
5833;SDS011;2943;48.012;10.968;2022-09-09T03:20:03;2.40;;;2.20;;
5833;SDS011;2943;48.012;10.968;2022-09-09T03:22:30;3.00;;;2.60;;
5833;SDS011;2943;48.012;10.968;2022-09-09T03:24:57;4.40;;;2.47;;
5833;SDS011;2943;48.012;10.968;2022-09-09T03:27:24;2.93;;;2.50;;
5833;SDS011;2943;48.012;10.968;2022-09-09T03:29:51;2.63;;;2.40;;
5833;SDS011;2943;48.012;10.968;2022-09-09T03:32:18;2.60;;;2.40;;
5833;SDS011;2943;48.012;10.968;2022-09-09T03:34:48;4.07;;;2.47;;
5833;SDS011;2943;48.012;10.968;2022-09-09T03:37:15;3.37;;;2.50;;
5833;SDS011;2943;48.012;10.968;2022-09-09T03:39:42;3.10;;;2.27;;
5833;SDS011;2943;48.012;10.968;2022-09-09T03:42:11;6.53;;;2.30;;
5833;SDS011;2943;48.012;10.968;2022-09-09T03:44:39;2.53;;;2.20;;
5833;SDS011;2943;48.012;10.968;2022-09-09T03:47:07;3.20;;;2.07;;
5833;SDS011;2943;48.012;10.968;2022-09-09T03:49:33;4.03;;;2.87;;
5833;SDS011;2943;48.012;10.968;2022-09-09T03:52:01;2.50;;;2.30;;
5833;SDS011;2943;48.012;10.968;2022-09-09T03:54:28;3.03;;;2.70;;
5833;SDS011;2943;48.012;10.968;2022-09-09T03:56:55;7.63;;;2.70;;
5833;SDS011;2943;48.012;10.968;2022-09-09T03:59:23;3.30;;;2.47;;
5833;SDS011;2943;48.012;10.968;2022-09-09T04:01:50;3.38;;;2.10;;
5833;SDS011;2943;48.012;10.968;2022-09-09T04:04:17;4.93;;;2.55;;
5833;SDS011;2943;48.012;10.968;2022-09-09T04:06:44;6.63;;;2.87;;
5833;SDS011;2943;48.012;10.968;2022-09-09T04:09:14;2.73;;;2.43;;
5833;SDS011;2943;48.012;10.968;2022-09-09T04:11:41;2.33;;;2.13;;
5833;SDS011;2943;48.012;10.968;2022-09-09T04:14:08;2.47;;;2.27;;
5833;SDS011;2943;48.012;10.968;2022-09-09T04:16:34;2.47;;;2.20;;
5833;SDS011;2943;48.012;10.968;2022-09-09T04:19:01;4.90;;;2.50;;
5833;SDS011;2943;48.012;10.968;2022-09-09T04:21:29;7.30;;;2.27;;
5833;SDS011;2943;48.012;10.968;2022-09-09T04:23:56;2.70;;;2.50;;
5833;SDS011;2943;48.012;10.968;2022-09-09T04:26:24;2.70;;;2.40;;
5833;SDS011;2943;48.012;10.968;2022-09-09T04:28:51;5.47;;;2.57;;
5833;SDS011;2943;48.012;10.968;2022-09-09T04:31:18;2.30;;;2.03;;
5833;SDS011;2943;48.012;10.968;2022-09-09T04:33:48;2.30;;;2.10;;
5833;SDS011;2943;48.012;10.968;2022-09-09T04:36:15;2.33;;;2.17;;
5833;SDS011;2943;48.012;10.968;2022-09-09T04:38:43;2.73;;;2.30;;
5833;SDS011;2943;48.012;10.968;2022-09-09T04:41:10;8.03;;;2.40;;
5833;SDS011;2943;48.012;10.968;2022-09-09T04:43:38;3.60;;;2.47;;
5833;SDS011;2943;48.012;10.968;2022-09-09T04:46:05;3.10;;;2.30;;
5833;SDS011;2943;48.012;10.968;2022-09-09T04:48:32;5.33;;;2.33;;
5833;SDS011;2943;48.012;10.968;2022-09-09T04:51:00;5.90;;;2.40;;
5833;SDS011;2943;48.012;10.968;2022-09-09T04:53:29;2.63;;;2.37;;
5833;SDS011;2943;48.012;10.968;2022-09-09T04:56:03;4.97;;;3.37;;
5833;SDS011;2943;48.012;10.968;2022-09-09T04:58:32;4.17;;;3.70;;
5833;SDS011;2943;48.012;10.968;2022-09-09T05:01:04;5.80;;;3.73;;
5833;SDS011;2943;48.012;10.968;2022-09-09T05:03:32;10.33;;;3.70;;
5833;SDS011;2943;48.012;10.968;2022-09-09T05:06:02;3.60;;;3.30;;
5833;SDS011;2943;48.012;10.968;2022-09-09T05:08:30;3.93;;;2.60;;
5833;SDS011;2943;48.012;10.968;2022-09-09T05:10:57;4.43;;;2.93;;
5833;SDS011;2943;48.012;10.968;2022-09-09T05:13:24;3.47;;;2.90;;
5833;SDS011;2943;48.012;10.968;2022-09-09T05:15:51;3.70;;;3.10;;
5833;SDS011;2943;48.012;10.968;2022-09-09T05:18:20;3.50;;;2.57;;
5833;SDS011;2943;48.012;10.968;2022-09-09T05:20:47;6.37;;;2.97;;
5833;SDS011;2943;48.012;10.968;2022-09-09T05:23:14;5.27;;;2.67;;
5833;SDS011;2943;48.012;10.968;2022-09-09T05:25:41;2.70;;;2.50;;
5833;SDS011;2943;48.012;10.968;2022-09-09T05:28:08;5.30;;;2.30;;
5833;SDS011;2943;48.012;10.968;2022-09-09T05:30:36;2.60;;;2.40;;
5833;SDS011;2943;48.012;10.968;2022-09-09T05:33:03;3.00;;;1.90;;
5833;SDS011;2943;48.012;10.968;2022-09-09T05:35:32;2.23;;;2.10;;
5833;SDS011;2943;48.012;10.968;2022-09-09T05:37:59;5.10;;;2.30;;
5833;SDS011;2943;48.012;10.968;2022-09-09T05:40:26;4.53;;;2.30;;
5833;SDS011;2943;48.012;10.968;2022-09-09T05:42:53;3.57;;;2.57;;
5833;SDS011;2943;48.012;10.968;2022-09-09T05:45:20;3.57;;;3.27;;
5833;SDS011;2943;48.012;10.968;2022-09-09T05:47:51;3.47;;;3.17;;
5833;SDS011;2943;48.012;10.968;2022-09-09T05:50:18;8.40;;;3.90;;
5833;SDS011;2943;48.012;10.968;2022-09-09T05:52:47;5.27;;;4.20;;
5833;SDS011;2943;48.012;10.968;2022-09-09T05:55:14;6.30;;;3.90;;
5833;SDS011;2943;48.012;10.968;2022-09-09T05:57:42;4.37;;;3.70;;
5833;SDS011;2943;48.012;10.968;2022-09-09T06:00:14;5.40;;;2.70;;
5833;SDS011;2943;48.012;10.968;2022-09-09T06:02:41;4.43;;;2.67;;
5833;SDS011;2943;48.012;10.968;2022-09-09T06:05:08;3.10;;;2.73;;
5833;SDS011;2943;48.012;10.968;2022-09-09T06:07:35;7.17;;;2.87;;
5833;SDS011;2943;48.012;10.968;2022-09-09T06:10:04;3.40;;;2.70;;
5833;SDS011;2943;48.012;10.968;2022-09-09T06:12:32;9.03;;;2.37;;
5833;SDS011;2943;48.012;10.968;2022-09-09T06:14:59;5.03;;;2.10;;
5833;SDS011;2943;48.012;10.968;2022-09-09T06:17:25;1.90;;;1.80;;
5833;SDS011;2943;48.012;10.968;2022-09-09T06:19:52;2.43;;;1.77;;
5833;SDS011;2943;48.012;10.968;2022-09-09T06:22:19;3.13;;;1.83;;
5833;SDS011;2943;48.012;10.968;2022-09-09T06:24:45;12.67;;;2.47;;
5833;SDS011;2943;48.012;10.968;2022-09-09T06:27:14;4.57;;;2.13;;
5833;SDS011;2943;48.012;10.968;2022-09-09T06:29:40;3.13;;;1.90;;
5833;SDS011;2943;48.012;10.968;2022-09-09T06:32:07;3.70;;;1.93;;
5833;SDS011;2943;48.012;10.968;2022-09-09T06:34:34;2.07;;;1.80;;
5833;SDS011;2943;48.012;10.968;2022-09-09T06:37:01;6.93;;;3.07;;
5833;SDS011;2943;48.012;10.968;2022-09-09T06:39:28;3.50;;;2.17;;
5833;SDS011;2943;48.012;10.968;2022-09-09T06:41:55;2.60;;;2.40;;
5833;SDS011;2943;48.012;10.968;2022-09-09T06:44:24;3.93;;;1.93;;
5833;SDS011;2943;48.012;10.968;2022-09-09T06:46:52;3.10;;;1.90;;
5833;SDS011;2943;48.012;10.968;2022-09-09T06:49:18;2.67;;;1.93;;
5833;SDS011;2943;48.012;10.968;2022-09-09T06:51:45;2.17;;;1.97;;
5833;SDS011;2943;48.012;10.968;2022-09-09T06:54:12;2.90;;;2.43;;
5833;SDS011;2943;48.012;10.968;2022-09-09T06:56:39;2.43;;;2.23;;
5833;SDS011;2943;48.012;10.968;2022-09-09T06:59:08;2.30;;;1.90;;
5833;SDS011;2943;48.012;10.968;2022-09-09T07:01:37;4.73;;;2.03;;
5833;SDS011;2943;48.012;10.968;2022-09-09T07:04:05;4.97;;;2.27;;
5833;SDS011;2943;48.012;10.968;2022-09-09T07:06:34;4.37;;;2.07;;
5833;SDS011;2943;48.012;10.968;2022-09-09T07:09:02;4.07;;;2.20;;
5833;SDS011;2943;48.012;10.968;2022-09-09T07:11:31;2.70;;;1.90;;
5833;SDS011;2943;48.012;10.968;2022-09-09T07:13:59;5.10;;;2.20;;
5833;SDS011;2943;48.012;10.968;2022-09-09T07:16:27;3.63;;;2.00;;
5833;SDS011;2943;48.012;10.968;2022-09-09T07:18:55;4.90;;;2.30;;
5833;SDS011;2943;48.012;10.968;2022-09-09T07:21:23;4.03;;;2.30;;
5833;SDS011;2943;48.012;10.968;2022-09-09T07:23:52;4.33;;;2.30;;
5833;SDS011;2943;48.012;10.968;2022-09-09T07:26:21;2.03;;;1.90;;
5833;SDS011;2943;48.012;10.968;2022-09-09T07:28:49;3.20;;;2.10;;
5833;SDS011;2943;48.012;10.968;2022-09-09T07:31:17;3.00;;;1.90;;
5833;SDS011;2943;48.012;10.968;2022-09-09T07:33:45;4.90;;;1.93;;
5833;SDS011;2943;48.012;10.968;2022-09-09T07:36:15;4.10;;;2.40;;
5833;SDS011;2943;48.012;10.968;2022-09-09T07:38:43;5.50;;;2.30;;
5833;SDS011;2943;48.012;10.968;2022-09-09T07:41:12;3.40;;;2.00;;
5833;SDS011;2943;48.012;10.968;2022-09-09T07:43:42;2.20;;;1.90;;
5833;SDS011;2943;48.012;10.968;2022-09-09T07:46:11;2.80;;;2.00;;
5833;SDS011;2943;48.012;10.968;2022-09-09T07:48:43;3.17;;;2.10;;
5833;SDS011;2943;48.012;10.968;2022-09-09T07:51:11;3.57;;;2.10;;
5833;SDS011;2943;48.012;10.968;2022-09-09T07:53:41;3.00;;;1.90;;
5833;SDS011;2943;48.012;10.968;2022-09-09T07:56:09;4.47;;;1.80;;
5833;SDS011;2943;48.012;10.968;2022-09-09T07:58:38;7.10;;;2.13;;
5833;SDS011;2943;48.012;10.968;2022-09-09T08:01:06;7.33;;;1.90;;
5833;SDS011;2943;48.012;10.968;2022-09-09T08:03:34;3.13;;;2.20;;
5833;SDS011;2943;48.012;10.968;2022-09-09T08:06:01;2.03;;;1.93;;
5833;SDS011;2943;48.012;10.968;2022-09-09T08:08:29;5.07;;;2.23;;
5833;SDS011;2943;48.012;10.968;2022-09-09T08:11:02;5.00;;;2.10;;
5833;SDS011;2943;48.012;10.968;2022-09-09T08:13:30;8.10;;;2.00;;
5833;SDS011;2943;48.012;10.968;2022-09-09T08:16:03;5.40;;;1.90;;
5833;SDS011;2943;48.012;10.968;2022-09-09T08:18:31;3.97;;;2.43;;
5833;SDS011;2943;48.012;10.968;2022-09-09T08:21:04;2.83;;;2.00;;
5833;SDS011;2943;48.012;10.968;2022-09-09T08:23:33;3.33;;;2.20;;
5833;SDS011;2943;48.012;10.968;2022-09-09T08:26:05;3.17;;;1.77;;
5833;SDS011;2943;48.012;10.968;2022-09-09T08:28:34;5.67;;;1.97;;
5833;SDS011;2943;48.012;10.968;2022-09-09T08:31:07;2.30;;;1.70;;
5833;SDS011;2943;48.012;10.968;2022-09-09T08:33:35;3.20;;;1.47;;
5833;SDS011;2943;48.012;10.968;2022-09-09T08:36:03;2.23;;;1.73;;
5833;SDS011;2943;48.012;10.968;2022-09-09T08:38:31;3.70;;;1.87;;
5833;SDS011;2943;48.012;10.968;2022-09-09T08:40:59;1.60;;;1.50;;
5833;SDS011;2943;48.012;10.968;2022-09-09T08:43:36;8.23;;;2.00;;
5833;SDS011;2943;48.012;10.968;2022-09-09T08:46:05;8.10;;;1.90;;
5833;SDS011;2943;48.012;10.968;2022-09-09T08:48:40;2.27;;;1.60;;
5833;SDS011;2943;48.012;10.968;2022-09-09T08:51:13;1.90;;;1.73;;
5833;SDS011;2943;48.012;10.968;2022-09-09T08:53:41;3.53;;;2.30;;
5833;SDS011;2943;48.012;10.968;2022-09-09T08:56:12;3.00;;;1.70;;
5833;SDS011;2943;48.012;10.968;2022-09-09T08:58:44;2.00;;;1.57;;
5833;SDS011;2943;48.012;10.968;2022-09-09T09:01:19;1.93;;;1.63;;
5833;SDS011;2943;48.012;10.968;2022-09-09T09:03:59;2.10;;;1.90;;
5833;SDS011;2943;48.012;10.968;2022-09-09T09:06:37;1.87;;;1.67;;
5833;SDS011;2943;48.012;10.968;2022-09-09T09:09:15;4.47;;;1.87;;
5833;SDS011;2943;48.012;10.968;2022-09-09T09:11:49;3.27;;;1.73;;
5833;SDS011;2943;48.012;10.968;2022-09-09T09:14:20;3.87;;;1.77;;
5833;SDS011;2943;48.012;10.968;2022-09-09T09:16:50;6.47;;;1.40;;
5833;SDS011;2943;48.012;10.968;2022-09-09T09:19:20;7.63;;;1.80;;
5833;SDS011;2943;48.012;10.968;2022-09-09T09:21:48;1.80;;;1.70;;
5833;SDS011;2943;48.012;10.968;2022-09-09T09:24:20;5.17;;;1.87;;
5833;SDS011;2943;48.012;10.968;2022-09-09T09:26:51;2.40;;;1.77;;
5833;SDS011;2943;48.012;10.968;2022-09-09T09:29:18;3.23;;;1.70;;
5833;SDS011;2943;48.012;10.968;2022-09-09T09:31:48;1.60;;;1.50;;
5833;SDS011;2943;48.012;10.968;2022-09-09T09:34:19;6.03;;;1.60;;
5833;SDS011;2943;48.012;10.968;2022-09-09T09:36:52;2.43;;;1.43;;
5833;SDS011;2943;48.012;10.968;2022-09-09T09:39:23;1.53;;;1.43;;
5833;SDS011;2943;48.012;10.968;2022-09-09T09:41:52;2.40;;;1.80;;
5833;SDS011;2943;48.012;10.968;2022-09-09T09:44:22;3.70;;;2.00;;
5833;SDS011;2943;48.012;10.968;2022-09-09T09:46:50;3.80;;;1.90;;
5833;SDS011;2943;48.012;10.968;2022-09-09T09:49:18;3.40;;;1.70;;
5833;SDS011;2943;48.012;10.968;2022-09-09T09:51:45;1.93;;;1.50;;
5833;SDS011;2943;48.012;10.968;2022-09-09T09:54:17;5.20;;;1.80;;
5833;SDS011;2943;48.012;10.968;2022-09-09T09:56:50;4.70;;;2.20;;
5833;SDS011;2943;48.012;10.968;2022-09-09T09:59:22;6.40;;;1.73;;
5833;SDS011;2943;48.012;10.968;2022-09-09T10:02:05;4.87;;;1.93;;
5833;SDS011;2943;48.012;10.968;2022-09-09T10:04:43;2.50;;;1.57;;
5833;SDS011;2943;48.012;10.968;2022-09-09T10:07:11;2.53;;;1.60;;
5833;SDS011;2943;48.012;10.968;2022-09-09T10:09:39;1.73;;;1.63;;
5833;SDS011;2943;48.012;10.968;2022-09-09T10:12:12;2.10;;;1.90;;
5833;SDS011;2943;48.012;10.968;2022-09-09T10:14:48;3.90;;;1.83;;
5833;SDS011;2943;48.012;10.968;2022-09-09T10:17:26;1.60;;;1.50;;
5833;SDS011;2943;48.012;10.968;2022-09-09T10:20:10;2.17;;;1.97;;
5833;SDS011;2943;48.012;10.968;2022-09-09T10:22:45;1.63;;;1.50;;
5833;SDS011;2943;48.012;10.968;2022-09-09T10:25:26;2.10;;;1.67;;
5833;SDS011;2943;48.012;10.968;2022-09-09T10:28:22;2.40;;;1.60;;
5833;SDS011;2943;48.012;10.968;2022-09-09T10:31:02;5.07;;;1.30;;
5833;SDS011;2943;48.012;10.968;2022-09-09T10:33:39;3.20;;;1.77;;
5833;SDS011;2943;48.012;10.968;2022-09-09T10:36:16;4.20;;;1.70;;
5833;SDS011;2943;48.012;10.968;2022-09-09T10:38:46;2.90;;;1.63;;
5833;SDS011;2943;48.012;10.968;2022-09-09T10:41:16;2.70;;;1.70;;
5833;SDS011;2943;48.012;10.968;2022-09-09T10:43:52;2.60;;;1.60;;
5833;SDS011;2943;48.012;10.968;2022-09-09T10:46:42;1.87;;;1.60;;
5833;SDS011;2943;48.012;10.968;2022-09-09T10:49:37;2.90;;;1.50;;
5833;SDS011;2943;48.012;10.968;2022-09-09T10:52:19;2.50;;;1.47;;
5833;SDS011;2943;48.012;10.968;2022-09-09T10:54:53;2.53;;;1.20;;
5833;SDS011;2943;48.012;10.968;2022-09-09T10:57:26;4.40;;;1.73;;
5833;SDS011;2943;48.012;10.968;2022-09-09T10:59:57;2.60;;;1.53;;
5833;SDS011;2943;48.012;10.968;2022-09-09T11:02:29;1.40;;;1.30;;
5833;SDS011;2943;48.012;10.968;2022-09-09T11:04:57;2.00;;;1.40;;
5833;SDS011;2943;48.012;10.968;2022-09-09T11:07:28;4.70;;;1.50;;
5833;SDS011;2943;48.012;10.968;2022-09-09T11:10:01;3.80;;;1.23;;
5833;SDS011;2943;48.012;10.968;2022-09-09T11:12:31;3.90;;;1.30;;
5833;SDS011;2943;48.012;10.968;2022-09-09T11:15:06;2.57;;;1.50;;
5833;SDS011;2943;48.012;10.968;2022-09-09T11:17:40;8.80;;;1.70;;
5833;SDS011;2943;48.012;10.968;2022-09-09T11:20:12;2.93;;;1.60;;
5833;SDS011;2943;48.012;10.968;2022-09-09T11:22:42;2.80;;;1.63;;
5833;SDS011;2943;48.012;10.968;2022-09-09T11:25:14;4.77;;;1.70;;
5833;SDS011;2943;48.012;10.968;2022-09-09T11:27:48;4.10;;;1.60;;
5833;SDS011;2943;48.012;10.968;2022-09-09T11:30:27;8.90;;;1.87;;
5833;SDS011;2943;48.012;10.968;2022-09-09T11:33:06;3.77;;;1.70;;
5833;SDS011;2943;48.012;10.968;2022-09-09T11:35:45;3.83;;;1.77;;
5833;SDS011;2943;48.012;10.968;2022-09-09T11:38:21;4.90;;;2.30;;
5833;SDS011;2943;48.012;10.968;2022-09-09T11:40:59;7.23;;;1.70;;
5833;SDS011;2943;48.012;10.968;2022-09-09T11:43:30;3.83;;;1.60;;
5833;SDS011;2943;48.012;10.968;2022-09-09T11:46:01;5.53;;;1.87;;
5833;SDS011;2943;48.012;10.968;2022-09-09T11:48:31;3.00;;;1.50;;
5833;SDS011;2943;48.012;10.968;2022-09-09T11:51:00;3.70;;;1.50;;
5833;SDS011;2943;48.012;10.968;2022-09-09T11:53:30;5.57;;;1.50;;
5833;SDS011;2943;48.012;10.968;2022-09-09T11:56:05;3.90;;;1.70;;
5833;SDS011;2943;48.012;10.968;2022-09-09T11:58:36;2.47;;;1.73;;
5833;SDS011;2943;48.012;10.968;2022-09-09T12:04:26;3.53;;;2.00;;
5833;SDS011;2943;48.012;10.968;2022-09-09T12:06:57;5.30;;;1.80;;
5833;SDS011;2943;48.012;10.968;2022-09-09T12:09:29;4.00;;;1.83;;
5833;SDS011;2943;48.012;10.968;2022-09-09T12:14:56;1.70;;;1.20;;
5833;SDS011;2943;48.012;10.968;2022-09-09T12:17:29;2.70;;;1.57;;
5833;SDS011;2943;48.012;10.968;2022-09-09T12:20:03;2.60;;;1.67;;
5833;SDS011;2943;48.012;10.968;2022-09-09T12:22:38;6.30;;;1.97;;
5833;SDS011;2943;48.012;10.968;2022-09-09T12:25:21;8.73;;;1.60;;
5833;SDS011;2943;48.012;10.968;2022-09-09T12:27:59;2.43;;;1.50;;
5833;SDS011;2943;48.012;10.968;2022-09-09T12:30:32;3.23;;;1.40;;
5833;SDS011;2943;48.012;10.968;2022-09-09T12:33:10;4.30;;;1.67;;
5833;SDS011;2943;48.012;10.968;2022-09-09T12:35:38;2.50;;;1.20;;
5833;SDS011;2943;48.012;10.968;2022-09-09T12:38:10;6.10;;;1.80;;
5833;SDS011;2943;48.012;10.968;2022-09-09T12:40:41;4.63;;;1.73;;
5833;SDS011;2943;48.012;10.968;2022-09-09T12:43:16;7.20;;;1.67;;
5833;SDS011;2943;48.012;10.968;2022-09-09T12:45:44;4.00;;;1.63;;
5833;SDS011;2943;48.012;10.968;2022-09-09T12:48:13;1.97;;;1.40;;
5833;SDS011;2943;48.012;10.968;2022-09-09T12:50:43;2.30;;;1.33;;
5833;SDS011;2943;48.012;10.968;2022-09-09T12:53:14;2.70;;;1.50;;
5833;SDS011;2943;48.012;10.968;2022-09-09T12:55:49;5.80;;;1.60;;
5833;SDS011;2943;48.012;10.968;2022-09-09T12:58:18;3.13;;;1.50;;
5833;SDS011;2943;48.012;10.968;2022-09-09T13:00:49;2.73;;;1.60;;
5833;SDS011;2943;48.012;10.968;2022-09-09T13:03:19;3.63;;;1.53;;
5833;SDS011;2943;48.012;10.968;2022-09-09T13:05:46;3.97;;;1.50;;
5833;SDS011;2943;48.012;10.968;2022-09-09T13:08:14;1.83;;;1.30;;
5833;SDS011;2943;48.012;10.968;2022-09-09T13:10:46;5.87;;;1.80;;
5833;SDS011;2943;48.012;10.968;2022-09-09T13:13:14;3.47;;;1.70;;
5833;SDS011;2943;48.012;10.968;2022-09-09T13:15:48;1.70;;;1.30;;
5833;SDS011;2943;48.012;10.968;2022-09-09T13:18:18;7.77;;;2.03;;
5833;SDS011;2943;48.012;10.968;2022-09-09T13:20:48;3.70;;;1.50;;
5833;SDS011;2943;48.012;10.968;2022-09-09T13:23:17;6.90;;;1.87;;
5833;SDS011;2943;48.012;10.968;2022-09-09T13:25:52;2.10;;;1.33;;
5833;SDS011;2943;48.012;10.968;2022-09-09T13:28:20;2.07;;;1.47;;
5833;SDS011;2943;48.012;10.968;2022-09-09T13:30:55;7.20;;;1.60;;
5833;SDS011;2943;48.012;10.968;2022-09-09T13:33:30;2.07;;;1.60;;
5833;SDS011;2943;48.012;10.968;2022-09-09T13:35:59;2.53;;;1.50;;
5833;SDS011;2943;48.012;10.968;2022-09-09T13:38:29;3.10;;;1.40;;
5833;SDS011;2943;48.012;10.968;2022-09-09T13:40:58;3.47;;;1.40;;
5833;SDS011;2943;48.012;10.968;2022-09-09T13:43:30;4.13;;;1.70;;
5833;SDS011;2943;48.012;10.968;2022-09-09T13:46:00;3.77;;;2.00;;
5833;SDS011;2943;48.012;10.968;2022-09-09T13:48:29;3.67;;;2.00;;
5833;SDS011;2943;48.012;10.968;2022-09-09T13:50:57;3.83;;;2.10;;
5833;SDS011;2943;48.012;10.968;2022-09-09T13:53:26;3.07;;;1.30;;
5833;SDS011;2943;48.012;10.968;2022-09-09T13:55:53;1.40;;;1.30;;
5833;SDS011;2943;48.012;10.968;2022-09-09T13:58:22;5.83;;;1.50;;
5833;SDS011;2943;48.012;10.968;2022-09-09T14:00:50;3.23;;;1.40;;
5833;SDS011;2943;48.012;10.968;2022-09-09T14:03:17;2.23;;;1.37;;
5833;SDS011;2943;48.012;10.968;2022-09-09T14:05:46;4.67;;;1.77;;
5833;SDS011;2943;48.012;10.968;2022-09-09T14:08:16;3.53;;;1.40;;
5833;SDS011;2943;48.012;10.968;2022-09-09T14:10:48;2.27;;;1.50;;
5833;SDS011;2943;48.012;10.968;2022-09-09T14:13:15;3.23;;;1.53;;
5833;SDS011;2943;48.012;10.968;2022-09-09T14:15:42;1.67;;;1.20;;
5833;SDS011;2943;48.012;10.968;2022-09-09T14:18:09;4.40;;;1.47;;
5833;SDS011;2943;48.012;10.968;2022-09-09T14:20:38;3.93;;;1.47;;
5833;SDS011;2943;48.012;10.968;2022-09-09T14:23:07;2.40;;;1.50;;
5833;SDS011;2943;48.012;10.968;2022-09-09T14:25:38;2.60;;;1.50;;
5833;SDS011;2943;48.012;10.968;2022-09-09T14:28:07;3.47;;;1.20;;
5833;SDS011;2943;48.012;10.968;2022-09-09T14:30:36;4.73;;;1.50;;
5833;SDS011;2943;48.012;10.968;2022-09-09T14:33:03;2.13;;;1.40;;
5833;SDS011;2943;48.012;10.968;2022-09-09T14:35:30;3.60;;;1.30;;
5833;SDS011;2943;48.012;10.968;2022-09-09T14:37:58;1.50;;;1.40;;
5833;SDS011;2943;48.012;10.968;2022-09-09T14:40:26;1.97;;;1.27;;
5833;SDS011;2943;48.012;10.968;2022-09-09T14:42:53;2.90;;;1.40;;
5833;SDS011;2943;48.012;10.968;2022-09-09T14:45:21;3.23;;;1.63;;
5833;SDS011;2943;48.012;10.968;2022-09-09T14:47:49;1.63;;;1.30;;
5833;SDS011;2943;48.012;10.968;2022-09-09T14:50:17;3.27;;;1.67;;
5833;SDS011;2943;48.012;10.968;2022-09-09T14:52:43;2.03;;;1.50;;
5833;SDS011;2943;48.012;10.968;2022-09-09T14:55:10;8.50;;;1.70;;
5833;SDS011;2943;48.012;10.968;2022-09-09T14:57:38;2.37;;;1.50;;
5833;SDS011;2943;48.012;10.968;2022-09-09T15:00:06;2.73;;;1.40;;
5833;SDS011;2943;48.012;10.968;2022-09-09T15:02:34;1.77;;;1.50;;
5833;SDS011;2943;48.012;10.968;2022-09-09T15:05:01;3.53;;;1.57;;
5833;SDS011;2943;48.012;10.968;2022-09-09T15:07:28;2.60;;;1.50;;
5833;SDS011;2943;48.012;10.968;2022-09-09T15:09:56;3.30;;;1.80;;
5833;SDS011;2943;48.012;10.968;2022-09-09T15:12:23;3.03;;;1.63;;
5833;SDS011;2943;48.012;10.968;2022-09-09T15:14:51;1.63;;;1.23;;
5833;SDS011;2943;48.012;10.968;2022-09-09T15:17:19;2.97;;;1.30;;
5833;SDS011;2943;48.012;10.968;2022-09-09T15:19:46;1.50;;;1.40;;
5833;SDS011;2943;48.012;10.968;2022-09-09T15:22:15;4.77;;;1.30;;
5833;SDS011;2943;48.012;10.968;2022-09-09T15:24:41;1.53;;;1.37;;
5833;SDS011;2943;48.012;10.968;2022-09-09T15:27:08;2.07;;;1.67;;
5833;SDS011;2943;48.012;10.968;2022-09-09T15:29:35;2.80;;;1.40;;
5833;SDS011;2943;48.012;10.968;2022-09-09T15:32:05;2.40;;;1.50;;